createdAt,value
2022-09-26T00:02:25.447Z,24.21
2022-09-26T00:04:55.847Z,24.21
2022-09-26T00:07:26.245Z,23.44
2022-09-26T00:09:56.735Z,23.39
2022-09-26T00:12:26.243Z,24.05
2022-09-26T00:14:56.104Z,24.05
2022-09-26T00:17:27.172Z,23.96
2022-09-26T00:19:57.166Z,24.03
2022-09-26T00:22:27.554Z,24.31
2022-09-26T00:24:57.675Z,24.21
2022-09-26T00:27:28.192Z,24.09
2022-09-26T00:29:58.147Z,23.65
2022-09-26T00:32:28.773Z,23.22
2022-09-26T00:34:58.793Z,23.22
2022-09-26T00:37:29.427Z,23.39
2022-09-26T00:39:59.869Z,23.73
2022-09-26T00:42:30.260Z,23.66
2022-09-26T00:44:59.823Z,23.54
2022-09-26T00:47:47.699Z,23.77
2022-09-26T00:50:25.630Z,24.04
2022-09-26T00:53:04.286Z,24.13
2022-09-26T00:55:40.014Z,23.65
2022-09-26T00:58:23.076Z,23.46
2022-09-26T01:00:54.392Z,23.74
2022-09-26T01:03:25.975Z,23.44
2022-09-26T01:05:57.407Z,23.32
2022-09-26T01:08:33.873Z,22.77
2022-09-26T01:11:05.280Z,22.76
2022-09-26T01:13:38.338Z,23.74
2022-09-26T01:16:08.915Z,23.62
2022-09-26T01:18:39.893Z,24.03
2022-09-26T01:21:32.196Z,24.20
2022-09-26T01:24:40.580Z,23.35
2022-09-26T01:27:35.909Z,23.06
2022-09-26T01:30:16.637Z,22.79
2022-09-26T01:33:40.327Z,22.61
2022-09-26T01:36:19.526Z,23.20
2022-09-26T01:38:52.541Z,22.87
2022-09-26T01:41:42.159Z,23.52
2022-09-26T01:44:36.486Z,24.00
2022-09-26T01:47:29.247Z,24.26
2022-09-26T01:50:48.925Z,24.04
2022-09-26T01:53:29.343Z,23.53
2022-09-26T01:56:23.742Z,24.21
2022-09-26T01:59:20.831Z,23.10
2022-09-26T02:01:59.264Z,23.55
2022-09-26T02:04:41.653Z,24.16
2022-09-26T02:07:22.213Z,24.27
2022-09-26T02:10:03.611Z,24.16
2022-09-26T02:12:42.953Z,24.32
2022-09-26T02:15:17.923Z,24.94
2022-09-26T02:17:53.124Z,24.86
2022-09-26T02:20:33.211Z,24.66
2022-09-26T02:23:06.170Z,24.83
2022-09-26T02:25:36.619Z,24.68
2022-09-26T02:28:07.116Z,23.82
2022-09-26T02:30:38.191Z,24.26
2022-09-26T02:33:08.613Z,24.55
2022-09-26T02:35:56.899Z,23.75
2022-09-26T02:38:33.299Z,22.90
2022-09-26T02:41:44.917Z,22.62
2022-09-26T02:44:52.215Z,23.21
2022-09-26T02:47:35.219Z,22.49
2022-09-26T02:50:26.175Z,22.36
2022-09-26T02:53:07.877Z,22.29
2022-09-26T02:56:10.499Z,21.89
2022-09-26T02:58:56.054Z,22.33
2022-09-26T03:01:29.142Z,22.48
2022-09-26T03:04:16.150Z,22.76
2022-09-26T03:06:49.906Z,22.98
2022-09-26T03:09:23.420Z,22.89
2022-09-26T03:11:56.034Z,23.84
2022-09-26T03:14:26.318Z,23.82
2022-09-26T03:16:56.684Z,23.80
2022-09-26T03:19:30.993Z,23.60
2022-09-26T03:22:01.548Z,23.68
2022-09-26T03:24:33.878Z,23.47
2022-09-26T03:27:06.266Z,23.45
2022-09-26T03:29:38.917Z,23.52
2022-09-26T03:32:12.257Z,23.74
2022-09-26T03:34:41.840Z,23.64
2022-09-26T03:37:12.454Z,23.53
2022-09-26T03:39:42.805Z,23.48
2022-09-26T03:42:22.739Z,23.71
2022-09-26T03:44:54.332Z,23.57
2022-09-26T03:47:33.299Z,23.52
2022-09-26T03:50:07.851Z,23.31
2022-09-26T03:52:37.884Z,23.98
2022-09-26T03:55:08.499Z,23.94
2022-09-26T03:57:42.074Z,22.56
2022-09-26T04:00:28.862Z,23.30
2022-09-26T04:03:02.976Z,23.24
2022-09-26T04:05:42.186Z,23.35
2022-09-26T04:08:12.168Z,23.73
2022-09-26T04:10:43.495Z,23.64
2022-09-26T04:13:33.702Z,23.93
2022-09-26T04:16:04.840Z,24.13
2022-09-26T04:18:36.201Z,23.89
2022-09-26T04:21:17.025Z,23.91
2022-09-26T04:23:47.412Z,24.03
2022-09-26T04:26:23.341Z,24.06
2022-09-26T04:28:57.546Z,23.93
2022-09-26T04:31:46.746Z,23.21
2022-09-26T04:34:26.843Z,23.71
2022-09-26T04:37:00.499Z,24.00
2022-09-26T04:39:30.850Z,23.91
2022-09-26T04:42:03.938Z,23.50
2022-09-26T04:44:34.346Z,23.35
2022-09-26T04:47:04.414Z,23.54
2022-09-26T04:49:57.570Z,23.65
2022-09-26T04:52:27.818Z,23.37
2022-09-26T04:54:58.283Z,23.55
2022-09-26T04:57:28.844Z,23.31
2022-09-26T04:59:59.215Z,23.13
2022-09-26T05:02:30.428Z,23.04
2022-09-26T05:05:01.334Z,22.85
2022-09-26T05:07:33.134Z,23.25
2022-09-26T05:10:03.503Z,23.60
2022-09-26T05:12:34.588Z,23.45
2022-09-26T05:15:07.206Z,23.55
2022-09-26T05:17:38.982Z,23.47
2022-09-26T05:20:11.135Z,24.06
2022-09-26T05:23:03.182Z,23.90
2022-09-26T05:25:58.414Z,23.39
2022-09-26T05:28:29.007Z,23.36
2022-09-26T05:31:00.552Z,23.50
2022-09-26T05:33:30.585Z,23.72
2022-09-26T05:36:04.090Z,22.62
2022-09-26T05:38:34.064Z,22.26
2022-09-26T05:41:05.194Z,22.01
2022-09-26T05:43:36.605Z,21.82
2022-09-26T05:46:12.933Z,21.81
2022-09-26T05:48:49.157Z,21.28
2022-09-26T05:51:23.351Z,21.09
2022-09-26T05:53:56.218Z,21.02
2022-09-26T05:56:28.794Z,21.15
2022-09-26T05:59:27.212Z,21.01
2022-09-26T06:02:20.597Z,20.93
2022-09-26T06:05:29.605Z,21.00
2022-09-26T06:08:02.871Z,20.81
2022-09-26T06:10:41.961Z,20.60
2022-09-26T06:13:16.350Z,20.53
2022-09-26T06:15:53.260Z,20.56
2022-09-26T06:18:24.947Z,20.41
2022-09-26T06:20:54.651Z,20.71
2022-09-26T06:23:25.030Z,20.74
2022-09-26T06:25:55.202Z,20.80
2022-09-26T06:28:25.545Z,21.88
2022-09-26T06:30:59.023Z,22.06
2022-09-26T06:33:56.234Z,22.28
2022-09-26T06:36:37.586Z,22.35
2022-09-26T06:39:08.113Z,22.40
2022-09-26T06:41:39.468Z,22.72
2022-09-26T06:44:36.329Z,22.73
2022-09-26T06:47:19.060Z,22.19
2022-09-26T06:49:50.242Z,22.71
2022-09-26T06:52:31.102Z,22.66
2022-09-26T06:55:01.619Z,22.35
2022-09-26T06:57:37.853Z,21.67
2022-09-26T07:00:14.011Z,21.42
2022-09-26T07:03:06.873Z,20.99
2022-09-26T07:05:58.718Z,20.73
2022-09-26T07:08:57.346Z,20.81
2022-09-26T07:11:38.219Z,21.22
2022-09-26T07:14:11.767Z,21.27
2022-09-26T07:16:43.248Z,20.97
2022-09-26T07:19:31.154Z,21.52
2022-09-26T07:22:10.682Z,21.75
2022-09-26T07:24:51.533Z,22.25
2022-09-26T07:27:21.903Z,22.55
2022-09-26T07:29:52.771Z,22.29
2022-09-26T07:32:24.368Z,22.22
2022-09-26T07:35:14.967Z,22.16
2022-09-26T07:37:46.010Z,22.29
2022-09-26T07:40:16.943Z,22.86
2022-09-26T07:42:58.629Z,22.50
2022-09-26T07:45:57.508Z,22.57
2022-09-26T07:48:45.617Z,22.51
2022-09-26T07:51:34.664Z,22.52
2022-09-26T07:54:08.170Z,22.46
2022-09-26T07:56:52.526Z,22.30
2022-09-26T07:59:45.584Z,22.53
2022-09-26T08:02:45.611Z,22.89
2022-09-26T08:05:20.978Z,23.19
2022-09-26T08:07:52.866Z,23.14
2022-09-26T08:10:40.948Z,23.03
2022-09-26T08:13:32.919Z,23.10
2022-09-26T08:16:34.978Z,23.41
2022-09-26T08:19:05.931Z,23.41
2022-09-26T08:21:36.827Z,23.23
2022-09-26T08:24:07.431Z,23.18
2022-09-26T08:27:00.439Z,22.91
2022-09-26T08:29:36.334Z,23.26
2022-09-26T08:32:06.336Z,23.28
2022-09-26T08:34:38.021Z,23.09
2022-09-26T08:37:30.784Z,23.05
2022-09-26T08:40:26.510Z,23.10
2022-09-26T08:43:10.900Z,23.56
2022-09-26T08:46:49.132Z,23.45
2022-09-26T08:49:52.119Z,23.34
2022-09-26T08:52:40.890Z,23.18
2022-09-26T08:55:22.365Z,23.66
2022-09-26T08:58:06.797Z,23.48
2022-09-26T09:00:41.851Z,23.41
2022-09-26T09:03:39.490Z,23.07
2022-09-26T09:06:14.144Z,23.41
2022-09-26T09:08:47.987Z,23.42
2022-09-26T09:11:50.905Z,23.21
2022-09-26T09:15:20.555Z,22.91
2022-09-26T09:18:33.510Z,22.01
2022-09-26T09:21:41.639Z,22.67
2022-09-26T09:24:53.917Z,22.76
2022-09-26T09:30:43.076Z,22.88
2022-09-26T09:33:33.290Z,23.21
2022-09-26T09:36:28.656Z,23.01
2022-09-26T09:39:36.865Z,21.94
2022-09-26T09:42:45.132Z,22.39
2022-09-26T09:45:27.091Z,22.48
2022-09-26T09:47:58.432Z,21.31
2022-09-26T09:50:45.146Z,20.89
2022-09-26T09:53:36.519Z,21.57
2022-09-26T09:56:13.524Z,22.20
2022-09-26T09:59:08.119Z,22.41
2022-09-26T10:02:09.509Z,22.95
2022-09-26T10:04:51.147Z,23.21
2022-09-26T10:07:21.640Z,23.20
2022-09-26T10:10:22.286Z,23.22
2022-09-26T10:13:12.192Z,23.35
2022-09-26T10:16:17.384Z,23.91
2022-09-26T10:19:09.259Z,23.65
2022-09-26T10:21:48.436Z,23.83
2022-09-26T10:24:25.143Z,23.45
2022-09-26T10:27:38.793Z,23.29
2022-09-26T10:30:19.636Z,22.61
2022-09-26T10:33:01.230Z,22.83
2022-09-26T10:35:47.978Z,22.87
2022-09-26T10:38:21.661Z,23.33
2022-09-26T10:41:05.237Z,23.64
2022-09-26T10:43:39.402Z,23.27
2022-09-26T10:46:28.713Z,23.39
2022-09-26T10:49:20.084Z,23.67
2022-09-26T10:52:27.259Z,23.69
2022-09-26T10:55:17.875Z,23.23
2022-09-26T10:57:53.383Z,23.30
2022-09-26T11:00:37.941Z,23.45
2022-09-26T11:03:21.844Z,23.61
2022-09-26T11:06:35.594Z,23.78
2022-09-26T11:09:39.846Z,23.70
2022-09-26T11:13:01.008Z,24.45
2022-09-26T11:15:32.015Z,24.43
2022-09-26T11:18:07.064Z,24.79
2022-09-26T11:20:56.462Z,24.87
2022-09-26T11:23:53.983Z,25.21
2022-09-26T11:26:36.685Z,25.71
2022-09-26T11:29:40.543Z,25.45
2022-09-26T11:32:24.965Z,25.22
2022-09-26T11:35:45.671Z,25.95
2022-09-26T11:38:41.461Z,26.59
2022-09-26T11:41:39.702Z,26.04
2022-09-26T11:44:34.289Z,26.18
2022-09-26T11:47:32.379Z,26.06
2022-09-26T11:50:29.445Z,26.86
2022-09-26T11:53:34.566Z,25.83
2022-09-26T11:56:37.483Z,25.77
2022-09-26T11:59:23.382Z,25.34
2022-09-26T12:02:14.069Z,25.43
2022-09-26T12:05:14.764Z,25.95
2022-09-26T12:08:18.763Z,26.62
2022-09-26T12:10:52.431Z,27.06
2022-09-26T12:13:36.179Z,27.30
2022-09-26T12:16:12.472Z,28.02
2022-09-26T12:19:01.587Z,28.14
2022-09-26T12:22:22.096Z,28.37
2022-09-26T12:25:09.092Z,28.67
2022-09-26T12:27:43.485Z,28.39
2022-09-26T12:30:39.246Z,29.07
2022-09-26T12:33:51.059Z,30.01
2022-09-26T12:36:41.549Z,30.15
2022-09-26T12:39:19.949Z,30.78
2022-09-26T12:42:17.938Z,30.50
2022-09-26T12:45:35.630Z,30.40
2022-09-26T12:48:30.910Z,30.61
2022-09-26T12:51:17.477Z,30.85
2022-09-26T12:54:13.910Z,31.01
2022-09-26T12:56:55.791Z,31.87
2022-09-26T12:59:53.578Z,31.49
2022-09-26T13:02:42.698Z,32.01
2022-09-26T13:05:28.971Z,32.47
2022-09-26T13:08:22.269Z,31.92
2022-09-26T13:10:52.831Z,31.30
2022-09-26T13:13:56.401Z,31.82
2022-09-26T13:16:35.956Z,31.25
2022-09-26T13:19:29.399Z,30.57
2022-09-26T13:22:06.664Z,30.43
2022-09-26T13:25:03.895Z,30.83
2022-09-26T13:27:38.738Z,31.07
2022-09-26T13:30:14.846Z,30.64
2022-09-26T13:32:58.204Z,30.43
2022-09-26T13:35:33.010Z,30.40
2022-09-26T13:38:15.367Z,30.09
2022-09-26T13:41:08.804Z,29.90
2022-09-26T13:43:58.607Z,30.72
2022-09-26T13:46:43.831Z,31.14
2022-09-26T13:49:29.698Z,30.30
2022-09-26T13:52:00.403Z,30.85
2022-09-26T13:54:56.079Z,30.79
2022-09-26T13:57:53.454Z,30.50
2022-09-26T14:00:41.601Z,30.31
2022-09-26T14:03:16.719Z,29.91
2022-09-26T14:05:54.016Z,29.60
2022-09-26T14:08:45.944Z,29.27
2022-09-26T14:11:44.061Z,29.11
2022-09-26T14:14:22.419Z,28.94
2022-09-26T14:16:54.090Z,28.80
2022-09-26T14:19:55.992Z,28.93
2022-09-26T14:22:26.831Z,28.91
2022-09-26T14:24:59.399Z,28.95
2022-09-26T14:27:42.027Z,29.73
2022-09-26T14:30:15.543Z,30.60
2022-09-26T14:33:07.351Z,30.21
2022-09-26T14:35:44.261Z,30.78
2022-09-26T14:38:18.255Z,31.17
2022-09-26T14:41:01.923Z,30.59
2022-09-26T14:43:33.793Z,30.45
2022-09-26T14:46:06.120Z,30.86
2022-09-26T14:48:42.944Z,30.81
2022-09-26T14:51:13.379Z,30.38
2022-09-26T14:53:52.719Z,30.54
2022-09-26T14:56:30.532Z,30.96
2022-09-26T14:59:36.004Z,31.23
2022-09-26T15:02:35.524Z,31.65
2022-09-26T15:05:12.545Z,31.90
2022-09-26T15:07:54.834Z,32.34
2022-09-26T15:10:41.215Z,32.62
2022-09-26T15:13:38.739Z,33.50
2022-09-26T15:16:33.641Z,34.54
2022-09-26T15:19:22.328Z,35.24
2022-09-26T15:22:14.254Z,34.49
2022-09-26T15:24:44.763Z,34.97
2022-09-26T15:27:30.372Z,35.65
2022-09-26T15:30:11.174Z,34.96
2022-09-26T15:32:42.034Z,33.81
2022-09-26T15:35:16.562Z,33.91
2022-09-26T15:37:47.773Z,33.88
2022-09-26T15:40:21.453Z,34.08
2022-09-26T15:43:04.105Z,33.36
2022-09-26T15:46:04.675Z,32.87
2022-09-26T15:48:45.767Z,32.86
2022-09-26T15:51:26.842Z,33.54
2022-09-26T15:54:22.451Z,33.51
2022-09-26T15:56:54.001Z,33.15
2022-09-26T15:59:36.275Z,33.89
2022-09-26T16:02:33.741Z,33.94
2022-09-26T16:05:10.695Z,34.16
2022-09-26T16:07:49.063Z,35.29
2022-09-26T16:10:34.440Z,36.70
2022-09-26T16:13:05.163Z,37.10
2022-09-26T16:15:36.157Z,37.12
2022-09-26T16:18:06.864Z,36.71
2022-09-26T16:20:37.735Z,36.11
2022-09-26T16:23:08.614Z,35.75
2022-09-26T16:25:49.055Z,34.16
2022-09-26T16:28:20.135Z,33.33
2022-09-26T16:31:11.023Z,33.96
2022-09-26T16:33:42.480Z,33.35
2022-09-26T16:36:16.133Z,34.16
2022-09-26T16:38:57.495Z,35.91
2022-09-26T16:44:37.496Z,35.90
2022-09-26T16:47:36.980Z,36.93
2022-09-26T16:50:32.321Z,36.93
2022-09-26T16:53:08.111Z,36.36
2022-09-26T16:55:39.155Z,36.61
2022-09-26T16:58:14.678Z,36.93
2022-09-26T17:01:03.748Z,37.17
2022-09-26T17:03:34.316Z,35.43
2022-09-26T17:06:05.675Z,34.92
2022-09-26T17:08:36.207Z,35.94
2022-09-26T17:11:14.678Z,35.30
2022-09-26T17:13:45.850Z,35.80
2022-09-26T17:16:17.293Z,34.38
2022-09-26T17:18:47.832Z,34.76
2022-09-26T17:21:18.722Z,35.99
2022-09-26T17:23:50.199Z,35.82
2022-09-26T17:26:24.816Z,35.67
2022-09-26T17:28:55.632Z,35.96
2022-09-26T17:31:28.011Z,36.23
2022-09-26T17:33:58.505Z,35.78
2022-09-26T17:36:31.280Z,36.21
2022-09-26T17:39:03.575Z,35.70
2022-09-26T17:41:38.421Z,35.66
2022-09-26T17:44:08.629Z,36.15
2022-09-26T17:46:40.965Z,37.30
2022-09-26T17:49:26.534Z,37.59
2022-09-26T17:52:01.762Z,37.41
2022-09-26T17:54:42.092Z,36.90
2022-09-26T17:57:15.548Z,37.43
2022-09-26T17:59:47.088Z,37.94
2022-09-26T18:02:24.627Z,38.47
2022-09-26T18:04:56.293Z,38.31
2022-09-26T18:07:40.222Z,39.33
2022-09-26T18:10:33.579Z,39.00
2022-09-26T18:13:13.504Z,39.25
2022-09-26T18:15:44.166Z,39.45
2022-09-26T18:18:21.005Z,39.18
2022-09-26T18:20:54.110Z,38.50
2022-09-26T18:23:31.975Z,38.68
2022-09-26T18:26:02.573Z,38.70
2022-09-26T18:28:33.562Z,39.12
2022-09-26T18:31:04.104Z,37.96
2022-09-26T18:33:38.058Z,38.39
2022-09-26T18:36:13.850Z,37.61
2022-09-26T18:38:44.267Z,38.06
2022-09-26T18:41:16.890Z,37.84
2022-09-26T18:43:53.505Z,38.30
2022-09-26T18:46:24.689Z,37.94
2022-09-26T18:49:07.252Z,38.34
2022-09-26T18:51:37.723Z,38.88
2022-09-26T18:54:16.666Z,39.07
2022-09-26T18:57:05.838Z,39.22
2022-09-26T18:59:37.694Z,39.34
2022-09-26T19:02:28.442Z,39.35
2022-09-26T19:04:59.936Z,39.23
2022-09-26T19:07:34.622Z,39.21
2022-09-26T19:10:05.876Z,39.14
2022-09-26T19:12:40.162Z,38.78
2022-09-26T19:15:18.011Z,38.28
2022-09-26T19:17:51.078Z,37.27
2022-09-26T19:20:22.130Z,36.67
2022-09-26T19:22:55.498Z,36.64
2022-09-26T19:25:27.011Z,36.48
2022-09-26T19:27:57.500Z,36.82
2022-09-26T19:30:28.515Z,37.22
2022-09-26T19:32:59.221Z,37.70
2022-09-26T19:35:37.488Z,38.09
2022-09-26T19:38:18.638Z,38.32
2022-09-26T19:40:50.194Z,38.42
2022-09-26T19:43:22.458Z,38.11
2022-09-26T19:45:56.583Z,37.90
2022-09-26T19:48:27.162Z,37.79
2022-09-26T19:50:58.617Z,37.13
2022-09-26T19:53:34.650Z,36.83
2022-09-26T19:56:06.030Z,36.78
2022-09-26T19:58:37.230Z,36.70
2022-09-26T20:01:20.508Z,36.80
2022-09-26T20:03:51.315Z,36.99
2022-09-26T20:06:26.969Z,36.98
2022-09-26T20:09:01.644Z,36.83
2022-09-26T20:11:33.174Z,36.48
2022-09-26T20:14:21.802Z,36.17
2022-09-26T20:16:54.818Z,36.09
2022-09-26T20:19:39.569Z,35.05
2022-09-26T20:22:21.038Z,33.85
2022-09-26T20:24:56.111Z,33.34
2022-09-26T20:27:30.882Z,32.70
2022-09-26T20:30:21.353Z,32.01
2022-09-26T20:32:52.255Z,31.85
2022-09-26T20:35:22.679Z,31.34
2022-09-26T20:38:08.322Z,30.80
2022-09-26T20:40:40.715Z,30.44
2022-09-26T20:43:16.735Z,30.08
2022-09-26T20:45:50.263Z,30.29
2022-09-26T20:48:28.619Z,30.07
2022-09-26T20:50:59.139Z,30.23
2022-09-26T20:53:29.981Z,30.28
2022-09-26T20:56:00.552Z,29.90
2022-09-26T20:58:31.694Z,29.49
2022-09-26T21:01:02.896Z,29.75
2022-09-26T21:03:33.894Z,30.02
2022-09-26T21:06:04.375Z,30.05
2022-09-26T21:08:35.486Z,29.73
2022-09-26T21:11:06.040Z,30.11
2022-09-26T21:13:36.677Z,30.25
2022-09-26T21:16:07.676Z,29.80
2022-09-26T21:18:38.690Z,29.00
2022-09-26T21:21:22.760Z,29.00
2022-09-26T21:24:25.110Z,28.68
2022-09-26T21:26:56.101Z,28.00
2022-09-26T21:29:27.039Z,28.34
2022-09-26T21:35:16.028Z,27.36
2022-09-26T21:37:49.399Z,27.87
2022-09-26T21:40:27.322Z,27.73
2022-09-26T21:43:03.380Z,27.47
2022-09-26T21:45:34.243Z,27.50
2022-09-26T21:48:04.741Z,27.77
2022-09-26T21:50:42.609Z,27.41
2022-09-26T21:53:22.759Z,27.50
2022-09-26T21:56:05.017Z,27.61
2022-09-26T21:58:41.339Z,27.35
2022-09-26T22:01:12.063Z,26.98
2022-09-26T22:03:43.138Z,27.33
2022-09-26T22:06:14.051Z,27.16
2022-09-26T22:08:44.529Z,26.92
2022-09-26T22:11:17.342Z,26.72
2022-09-26T22:13:47.435Z,26.75
2022-09-26T22:16:18.862Z,26.50
2022-09-26T22:18:48.976Z,26.21
2022-09-26T22:21:19.425Z,26.47
2022-09-26T22:23:53.549Z,26.23
2022-09-26T22:26:24.108Z,26.16
2022-09-26T22:28:57.570Z,26.54
2022-09-26T22:31:28.154Z,26.23
2022-09-26T22:34:01.436Z,25.97
2022-09-26T22:36:33.739Z,26.27
2022-09-26T22:39:03.795Z,26.12
2022-09-26T22:41:34.340Z,25.78
2022-09-26T22:44:05.458Z,25.76
2022-09-26T22:46:36.276Z,26.06
2022-09-26T22:49:09.908Z,25.73
2022-09-26T22:51:40.287Z,25.56
2022-09-26T22:54:09.846Z,25.44
2022-09-26T22:56:39.559Z,25.24
2022-09-26T22:59:10.912Z,24.91
2022-09-26T23:01:41.016Z,24.77
2022-09-26T23:04:12.898Z,24.98
2022-09-26T23:06:42.858Z,24.96
2022-09-26T23:09:13.417Z,24.91
2022-09-26T23:11:44.285Z,24.80
2022-09-26T23:14:14.735Z,24.95
2022-09-26T23:16:44.873Z,24.89
2022-09-26T23:19:15.976Z,24.89
2022-09-26T23:21:46.198Z,24.77
2022-09-26T23:24:16.623Z,24.56
2022-09-26T23:26:46.672Z,24.80
2022-09-26T23:29:17.287Z,25.03
2022-09-26T23:31:47.489Z,24.70
2022-09-26T23:34:21.108Z,24.66
2022-09-26T23:36:50.701Z,24.46
2022-09-26T23:39:21.102Z,24.44
2022-09-26T23:41:51.482Z,24.10
2022-09-26T23:44:21.862Z,23.69
2022-09-26T23:46:51.843Z,23.88
2022-09-26T23:49:22.268Z,23.65
2022-09-26T23:51:51.871Z,23.53
2022-09-26T23:54:25.311Z,23.50
2022-09-26T23:56:55.337Z,23.74
2022-09-26T23:59:28.123Z,23.73
